createdAt,value
2023-02-12T00:01:28.669Z,10.23
2023-02-12T00:03:57.088Z,10.27
2023-02-12T00:06:25.225Z,10.38
2023-02-12T00:08:56.474Z,10.34
2023-02-12T00:11:27.391Z,10.50
2023-02-12T00:13:56.552Z,10.59
2023-02-12T00:16:28.515Z,10.73
2023-02-12T00:18:58.836Z,10.77
2023-02-12T00:21:27.224Z,10.77
2023-02-12T00:23:57.329Z,10.75
2023-02-12T00:26:25.565Z,10.55
2023-02-12T00:28:54.577Z,10.44
2023-02-12T00:31:27.121Z,10.39
2023-02-12T00:33:59.712Z,10.33
2023-02-12T00:36:30.676Z,10.24
2023-02-12T00:39:00.734Z,10.23
2023-02-12T00:41:29.656Z,10.27
2023-02-12T00:43:57.615Z,10.23
2023-02-12T00:46:25.447Z,10.29
2023-02-12T00:48:53.266Z,10.34
2023-02-12T00:51:21.699Z,10.26
2023-02-12T00:53:49.489Z,10.26
2023-02-12T00:56:18.710Z,10.18
2023-02-12T00:58:50.034Z,10.06
2023-02-12T01:01:18.791Z,10.17
2023-02-12T01:03:47.598Z,10.13
2023-02-12T01:06:15.615Z,10.08
2023-02-12T01:08:50.488Z,10.16
2023-02-12T01:11:20.706Z,10.15
2023-02-12T01:14:06.610Z,10.23
2023-02-12T01:16:36.471Z,10.40
2023-02-12T01:19:05.126Z,10.29
2023-02-12T01:21:35.058Z,10.32
2023-02-12T01:24:03.041Z,10.15
2023-02-12T01:26:33.099Z,10.34
2023-02-12T01:29:03.876Z,10.38
2023-02-12T01:31:36.616Z,10.33
2023-02-12T01:34:07.780Z,10.21
2023-02-12T01:36:36.203Z,10.22
2023-02-12T01:39:06.104Z,10.25
2023-02-12T01:41:40.208Z,10.17
2023-02-12T01:44:15.988Z,10.16
2023-02-12T01:46:46.082Z,10.24
2023-02-12T01:49:21.690Z,10.22
2023-02-12T01:51:56.396Z,10.06
2023-02-12T01:54:26.519Z,10.14
2023-02-12T01:56:56.213Z,10.25
2023-02-12T01:59:25.005Z,10.18
2023-02-12T02:01:54.722Z,10.31
2023-02-12T02:04:29.093Z,10.12
2023-02-12T02:07:01.236Z,10.15
2023-02-12T02:09:33.441Z,10.15
2023-02-12T02:12:23.212Z,10.15
2023-02-12T02:14:56.810Z,10.28
2023-02-12T02:17:47.574Z,10.25
2023-02-12T02:21:31.211Z,10.14
2023-02-12T02:24:32.773Z,10.16
2023-02-12T02:27:24.655Z,10.12
2023-02-12T02:30:34.486Z,10.15
2023-02-12T02:33:17.629Z,10.11
2023-02-12T02:35:56.254Z,10.10
2023-02-12T02:38:34.534Z,10.07
2023-02-12T02:41:08.477Z,10.05
2023-02-12T02:43:42.702Z,10.10
2023-02-12T02:46:18.459Z,10.02
2023-02-12T02:48:53.701Z,10.11
2023-02-12T02:51:27.610Z,9.88
2023-02-12T02:54:05.306Z,9.82
2023-02-12T02:56:38.110Z,9.85
2023-02-12T02:59:12.472Z,10.01
2023-02-12T03:01:50.901Z,9.88
2023-02-12T03:04:29.533Z,9.77
2023-02-12T03:07:04.787Z,9.85
2023-02-12T03:09:40.305Z,9.92
2023-02-12T03:12:16.538Z,9.87
2023-02-12T03:14:52.072Z,9.96
2023-02-12T03:17:27.931Z,9.97
2023-02-12T03:20:05.477Z,9.94
2023-02-12T03:22:38.843Z,9.62
2023-02-12T03:25:14.672Z,9.82
2023-02-12T03:27:48.101Z,9.94
2023-02-12T03:30:16.758Z,9.94
2023-02-12T03:32:57.201Z,9.96
2023-02-12T03:35:33.243Z,9.93
2023-02-12T03:38:12.610Z,10.03
2023-02-12T03:40:47.296Z,10.15
2023-02-12T03:43:50.665Z,10.07
2023-02-12T03:46:27.386Z,10.10
2023-02-12T03:49:03.775Z,10.18
2023-02-12T03:51:38.490Z,10.08
2023-02-12T03:54:10.589Z,10.04
2023-02-12T03:56:49.042Z,10.17
2023-02-12T03:59:18.028Z,10.08
2023-02-12T04:01:46.290Z,10.08
2023-02-12T04:04:17.199Z,10.15
2023-02-12T04:06:49.276Z,10.17
2023-02-12T04:09:18.069Z,10.19
2023-02-12T04:12:08.089Z,10.12
2023-02-12T04:14:49.944Z,9.96
2023-02-12T04:17:30.472Z,10.02
2023-02-12T04:20:14.500Z,10.04
2023-02-12T04:22:58.392Z,10.08
2023-02-12T04:25:47.770Z,10.14
2023-02-12T04:28:31.724Z,10.18
2023-02-12T04:31:06.880Z,10.17
2023-02-12T04:33:44.875Z,10.10
2023-02-12T04:36:24.051Z,10.07
2023-02-12T04:38:57.602Z,10.00
2023-02-12T04:41:26.949Z,10.01
2023-02-12T04:43:54.824Z,10.08
2023-02-12T04:46:22.794Z,10.08
2023-02-12T04:48:54.733Z,10.12
2023-02-12T04:51:24.114Z,10.15
2023-02-12T04:53:51.941Z,10.08
2023-02-12T04:56:19.659Z,9.97
2023-02-12T04:58:47.537Z,10.03
2023-02-12T05:01:15.714Z,10.01
2023-02-12T05:03:43.534Z,10.06
2023-02-12T05:06:11.385Z,10.09
2023-02-12T05:08:40.482Z,10.05
2023-02-12T05:11:10.108Z,10.13
2023-02-12T05:13:38.505Z,10.22
2023-02-12T05:16:08.276Z,10.18
2023-02-12T05:18:36.338Z,10.09
2023-02-12T05:21:05.910Z,10.08
2023-02-12T05:23:37.944Z,9.97
2023-02-12T05:26:10.682Z,9.92
2023-02-12T05:28:39.557Z,9.91
2023-02-12T05:31:14.123Z,9.84
2023-02-12T05:33:42.754Z,9.97
2023-02-12T05:36:14.766Z,9.92
2023-02-12T05:38:42.771Z,10.03
2023-02-12T05:41:15.220Z,10.08
2023-02-12T05:43:43.666Z,10.11
2023-02-12T05:46:12.790Z,10.04
2023-02-12T05:48:41.056Z,10.03
2023-02-12T05:51:12.502Z,10.01
2023-02-12T05:53:42.174Z,9.87
2023-02-12T05:56:14.736Z,9.85
2023-02-12T05:58:45.670Z,9.78
2023-02-12T06:01:17.703Z,9.87
2023-02-12T06:03:45.992Z,9.82
2023-02-12T06:06:14.726Z,9.89
2023-02-12T06:08:42.733Z,9.82
2023-02-12T06:11:14.666Z,9.87
2023-02-12T06:13:42.672Z,9.77
2023-02-12T06:16:19.806Z,9.70
2023-02-12T06:18:48.315Z,9.71
2023-02-12T06:21:17.442Z,9.75
2023-02-12T06:23:45.553Z,9.84
2023-02-12T06:26:15.294Z,9.86
2023-02-12T06:28:43.364Z,9.78
2023-02-12T06:31:20.337Z,9.81
2023-02-12T06:33:48.318Z,9.73
2023-02-12T06:36:16.403Z,9.65
2023-02-12T06:38:44.826Z,9.61
2023-02-12T06:41:14.494Z,9.59
2023-02-12T06:43:43.126Z,9.68
2023-02-12T06:46:11.762Z,9.64
2023-02-12T06:48:40.114Z,9.56
2023-02-12T06:51:10.649Z,9.70
2023-02-12T06:53:38.681Z,9.64
2023-02-12T06:56:11.614Z,9.62
2023-02-12T06:58:43.449Z,9.79
2023-02-12T07:01:17.679Z,9.90
2023-02-12T07:03:49.769Z,9.88
2023-02-12T07:06:18.444Z,9.89
2023-02-12T07:08:47.003Z,9.86
2023-02-12T07:11:15.169Z,9.92
2023-02-12T07:13:45.718Z,10.00
2023-02-12T07:16:16.417Z,10.07
2023-02-12T07:18:45.451Z,10.12
2023-02-12T07:21:16.097Z,10.17
2023-02-12T07:23:50.833Z,10.11
2023-02-12T07:26:21.624Z,10.22
2023-02-12T07:28:51.530Z,10.28
2023-02-12T07:31:22.711Z,10.20
2023-02-12T07:33:55.786Z,10.24
2023-02-12T07:36:25.973Z,10.29
2023-02-12T07:38:54.677Z,10.28
2023-02-12T07:41:25.547Z,9.95
2023-02-12T07:43:57.459Z,9.77
2023-02-12T07:46:32.465Z,9.82
2023-02-12T07:49:04.313Z,9.81
2023-02-12T07:51:34.866Z,9.87
2023-02-12T07:54:04.037Z,9.87
2023-02-12T07:56:35.353Z,9.89
2023-02-12T07:59:08.478Z,9.94
2023-02-12T08:01:39.477Z,9.75
2023-02-12T08:04:10.882Z,9.82
2023-02-12T08:06:41.917Z,9.92
2023-02-12T08:09:14.748Z,10.08
2023-02-12T08:11:44.123Z,9.97
2023-02-12T08:14:17.964Z,10.03
2023-02-12T08:16:48.322Z,9.93
2023-02-12T08:19:21.689Z,9.78
2023-02-12T08:21:52.200Z,9.86
2023-02-12T08:24:22.038Z,9.91
2023-02-12T08:26:50.861Z,10.04
2023-02-12T08:29:24.015Z,9.88
2023-02-12T08:31:57.329Z,10.08
2023-02-12T08:34:28.088Z,10.00
2023-02-12T08:36:57.263Z,10.00
2023-02-12T08:39:28.690Z,10.11
2023-02-12T08:41:58.934Z,10.28
2023-02-12T08:44:28.935Z,10.36
2023-02-12T08:46:56.763Z,10.44
2023-02-12T08:49:27.522Z,10.29
2023-02-12T08:51:58.655Z,10.43
2023-02-12T08:54:29.316Z,10.52
2023-02-12T08:56:59.239Z,10.61
2023-02-12T08:59:29.231Z,10.72
2023-02-12T09:01:57.182Z,10.73
2023-02-12T09:04:28.249Z,10.77
2023-02-12T09:06:56.235Z,10.74
2023-02-12T09:09:24.517Z,10.78
2023-02-12T09:11:52.392Z,10.85
2023-02-12T09:14:24.306Z,10.98
2023-02-12T09:16:54.794Z,11.09
2023-02-12T09:19:23.330Z,11.07
2023-02-12T09:21:55.469Z,10.98
2023-02-12T09:24:24.547Z,11.12
2023-02-12T09:26:52.452Z,11.28
2023-02-12T09:29:20.225Z,11.21
2023-02-12T09:31:48.218Z,11.22
2023-02-12T09:34:17.556Z,11.30
2023-02-12T09:36:45.335Z,11.44
2023-02-12T09:39:13.266Z,11.43
2023-02-12T09:42:12.208Z,11.51
2023-02-12T09:44:47.328Z,11.68
2023-02-12T09:47:24.103Z,11.76
2023-02-12T09:50:17.533Z,11.59
2023-02-12T09:52:46.174Z,11.58
2023-02-12T09:55:17.784Z,11.78
2023-02-12T09:57:46.810Z,11.85
2023-02-12T10:00:21.909Z,11.99
2023-02-12T10:02:53.472Z,11.56
2023-02-12T10:05:32.188Z,11.70
2023-02-12T10:08:31.823Z,11.64
2023-02-12T10:11:24.184Z,11.62
2023-02-12T10:14:08.444Z,11.74
2023-02-12T10:16:49.889Z,11.77
2023-02-12T10:19:38.678Z,11.98
2023-02-12T10:22:22.574Z,12.26
2023-02-12T10:25:08.892Z,12.12
2023-02-12T10:27:43.348Z,12.39
2023-02-12T10:30:21.262Z,12.56
2023-02-12T10:32:58.807Z,12.48
2023-02-12T10:35:27.525Z,12.44
2023-02-12T10:38:05.038Z,12.38
2023-02-12T10:40:38.348Z,12.10
2023-02-12T10:43:06.792Z,12.07
2023-02-12T10:45:40.171Z,12.19
2023-02-12T10:48:13.590Z,12.22
2023-02-12T10:50:57.682Z,12.27
2023-02-12T10:53:33.789Z,12.25
2023-02-12T10:56:19.021Z,12.31
2023-02-12T10:58:57.223Z,12.01
2023-02-12T11:01:28.596Z,12.10
2023-02-12T11:03:59.086Z,12.17
2023-02-12T11:06:31.800Z,12.14
2023-02-12T11:09:00.993Z,12.13
2023-02-12T11:11:37.167Z,12.17
2023-02-12T11:14:17.948Z,12.31
2023-02-12T11:16:53.755Z,12.34
2023-02-12T11:19:26.757Z,12.50
2023-02-12T11:22:10.090Z,12.68
2023-02-12T11:24:39.270Z,12.65
2023-02-12T11:27:25.857Z,12.56
2023-02-12T11:30:15.835Z,12.62
2023-02-12T11:32:44.412Z,12.93
2023-02-12T11:35:18.688Z,13.00
2023-02-12T11:37:47.531Z,12.56
2023-02-12T11:40:22.529Z,12.55
2023-02-12T11:42:55.100Z,13.01
2023-02-12T11:45:32.146Z,13.22
2023-02-12T11:48:01.152Z,13.21
2023-02-12T11:50:32.326Z,13.49
2023-02-12T11:53:08.062Z,13.71
2023-02-12T11:55:41.407Z,13.63
2023-02-12T11:58:16.998Z,14.04
2023-02-12T12:00:49.036Z,13.82
2023-02-12T12:03:26.523Z,13.88
2023-02-12T12:06:04.183Z,13.95
2023-02-12T12:08:42.083Z,14.17
2023-02-12T12:11:19.448Z,14.16
2023-02-12T12:13:58.038Z,14.53
2023-02-12T12:16:54.584Z,14.31
2023-02-12T12:19:48.561Z,14.12
2023-02-12T12:22:27.953Z,14.20
2023-02-12T12:25:06.366Z,14.09
2023-02-12T12:28:02.813Z,13.66
2023-02-12T12:30:41.222Z,13.92
2023-02-12T12:33:20.092Z,13.96
2023-02-12T12:36:18.681Z,13.99
2023-02-12T12:39:03.447Z,14.10
2023-02-12T12:41:49.977Z,14.30
2023-02-12T12:44:40.933Z,14.21
2023-02-12T12:47:26.010Z,13.73
2023-02-12T12:50:05.473Z,13.70
2023-02-12T12:53:14.094Z,14.00
2023-02-12T12:56:01.156Z,14.08
2023-02-12T12:58:49.153Z,14.17
2023-02-12T13:02:00.320Z,14.10
2023-02-12T13:05:23.015Z,14.33
2023-02-12T13:08:04.794Z,14.44
2023-02-12T13:10:38.287Z,14.63
2023-02-12T13:13:29.673Z,14.64
2023-02-12T13:16:11.565Z,14.85
2023-02-12T13:18:56.065Z,14.64
2023-02-12T13:21:41.799Z,14.46
2023-02-12T13:24:25.979Z,14.35
2023-02-12T13:26:58.530Z,14.34
2023-02-12T13:29:34.257Z,13.88
2023-02-12T13:32:13.052Z,13.83
2023-02-12T13:34:44.646Z,13.91
2023-02-12T13:37:20.377Z,13.92
2023-02-12T13:39:51.407Z,14.09
2023-02-12T13:42:45.741Z,14.17
2023-02-12T13:45:31.544Z,14.02
2023-02-12T13:48:20.332Z,13.65
2023-02-12T13:51:02.292Z,13.84
2023-02-12T13:53:52.782Z,13.86
2023-02-12T13:56:40.454Z,13.70
2023-02-12T13:59:39.913Z,13.73
2023-02-12T14:02:43.181Z,13.60
2023-02-12T14:05:24.671Z,13.86
2023-02-12T14:07:58.595Z,13.86
2023-02-12T14:10:32.704Z,13.93
2023-02-12T14:13:18.026Z,13.66
2023-02-12T14:15:51.527Z,13.59
2023-02-12T14:18:33.777Z,13.59
2023-02-12T14:21:35.345Z,13.65
2023-02-12T14:24:51.990Z,13.52
2023-02-12T14:27:43.327Z,13.48
2023-02-12T14:30:34.928Z,13.43
2023-02-12T14:33:22.655Z,13.29
2023-02-12T14:36:18.052Z,13.40
2023-02-12T14:39:04.545Z,13.34
2023-02-12T14:41:37.786Z,13.24
2023-02-12T14:44:47.297Z,13.14
2023-02-12T14:47:52.044Z,13.28
2023-02-12T14:50:25.345Z,13.26
2023-02-12T14:53:05.970Z,13.25
2023-02-12T14:55:36.001Z,13.32
2023-02-12T14:58:19.624Z,13.15
2023-02-12T15:00:50.694Z,12.93
2023-02-12T15:03:27.974Z,12.81
2023-02-12T15:06:05.043Z,12.88
2023-02-12T15:08:44.649Z,12.96
2023-02-12T15:11:35.615Z,13.05
2023-02-12T15:14:15.273Z,13.10
2023-02-12T15:16:56.024Z,13.03
2023-02-12T15:19:40.693Z,12.70
2023-02-12T15:22:26.914Z,12.66
2023-02-12T15:25:16.362Z,12.60
2023-02-12T15:27:47.920Z,12.87
2023-02-12T15:30:26.238Z,12.70
2023-02-12T15:32:57.206Z,12.87
2023-02-12T15:35:28.549Z,12.80
2023-02-12T15:38:00.158Z,12.91
2023-02-12T15:40:29.375Z,12.93
2023-02-12T15:43:01.046Z,12.95
2023-02-12T15:45:32.578Z,13.01
2023-02-12T15:48:12.636Z,13.00
2023-02-12T15:50:53.815Z,12.95
2023-02-12T15:53:24.577Z,12.81
2023-02-12T15:55:52.956Z,12.73
2023-02-12T15:58:26.837Z,12.69
2023-02-12T16:01:02.626Z,12.81
2023-02-12T16:03:34.591Z,12.71
2023-02-12T16:06:06.420Z,12.74
2023-02-12T16:08:36.153Z,12.78
2023-02-12T16:11:14.049Z,12.91
2023-02-12T16:13:47.436Z,13.00
2023-02-12T16:16:24.582Z,13.04
2023-02-12T16:19:18.803Z,12.98
2023-02-12T16:21:51.902Z,13.12
2023-02-12T16:24:27.660Z,13.11
2023-02-12T16:26:57.567Z,12.99
2023-02-12T16:29:25.936Z,12.99
2023-02-12T16:31:59.968Z,13.05
2023-02-12T16:34:35.270Z,12.92
2023-02-12T16:37:41.250Z,12.72
2023-02-12T16:40:27.759Z,12.72
2023-02-12T16:43:24.618Z,12.73
2023-02-12T16:46:04.890Z,12.78
2023-02-12T16:48:42.158Z,12.73
2023-02-12T16:51:24.264Z,12.76
2023-02-12T16:53:54.987Z,12.84
2023-02-12T16:56:26.660Z,12.80
2023-02-12T16:58:58.258Z,12.84
2023-02-12T17:01:29.544Z,12.83
2023-02-12T17:04:04.070Z,12.75
2023-02-12T17:06:33.171Z,12.75
2023-02-12T17:09:01.172Z,12.82
2023-02-12T17:11:29.525Z,12.84
2023-02-12T17:13:57.676Z,12.82
2023-02-12T17:16:30.724Z,12.88
2023-02-12T17:19:00.982Z,12.83
2023-02-12T17:21:37.839Z,12.72
2023-02-12T17:24:07.810Z,12.76
2023-02-12T17:26:35.829Z,12.63
2023-02-12T17:29:05.290Z,12.71
2023-02-12T17:31:34.445Z,12.81
2023-02-12T17:34:05.705Z,12.86
2023-02-12T17:36:35.366Z,12.90
2023-02-12T17:39:07.480Z,12.88
2023-02-12T17:41:35.910Z,12.79
2023-02-12T17:44:03.969Z,12.77
2023-02-12T17:46:32.020Z,12.81
2023-02-12T17:49:00.011Z,12.80
2023-02-12T17:51:29.315Z,12.65
2023-02-12T17:53:57.377Z,12.51
2023-02-12T17:56:25.776Z,12.48
2023-02-12T17:58:54.135Z,12.56
2023-02-12T18:01:23.720Z,12.63
2023-02-12T18:03:54.585Z,12.64
2023-02-12T18:06:27.174Z,12.65
2023-02-12T18:08:57.513Z,12.72
2023-02-12T18:11:27.639Z,12.78
2023-02-12T18:13:57.945Z,12.75
2023-02-12T18:16:30.956Z,12.75
2023-02-12T18:19:00.642Z,12.68
2023-02-12T18:21:28.613Z,12.51
2023-02-12T18:23:57.914Z,12.53
2023-02-12T18:26:25.842Z,12.64
2023-02-12T18:28:54.189Z,12.70
2023-02-12T18:31:22.341Z,12.70
2023-02-12T18:33:51.073Z,12.67
2023-02-12T18:36:21.543Z,12.64
2023-02-12T18:38:51.768Z,12.58
2023-02-12T18:41:25.054Z,12.53
2023-02-12T18:43:54.706Z,12.49
2023-02-12T18:46:25.683Z,12.43
2023-02-12T18:48:54.741Z,12.45
2023-02-12T18:51:26.130Z,12.41
2023-02-12T18:53:56.207Z,12.41
2023-02-12T18:56:25.514Z,12.44
2023-02-12T18:58:56.687Z,12.41
2023-02-12T19:01:26.894Z,12.34
2023-02-12T19:03:59.009Z,12.41
2023-02-12T19:06:27.532Z,12.38
2023-02-12T19:08:56.660Z,12.38
2023-02-12T19:11:27.267Z,12.43
2023-02-12T19:13:55.713Z,12.46
2023-02-12T19:16:25.032Z,12.50
2023-02-12T19:18:58.336Z,12.53
2023-02-12T19:21:26.624Z,12.53
2023-02-12T19:23:59.426Z,12.47
2023-02-12T19:26:30.681Z,12.42
2023-02-12T19:28:59.723Z,12.32
2023-02-12T19:31:30.947Z,12.31
2023-02-12T19:34:06.547Z,12.34
2023-02-12T19:36:36.248Z,12.36
2023-02-12T19:39:06.199Z,12.35
2023-02-12T19:41:41.456Z,12.33
2023-02-12T19:44:13.803Z,12.22
2023-02-12T19:46:42.363Z,12.16
2023-02-12T19:49:16.333Z,12.09
2023-02-12T19:51:45.034Z,12.10
2023-02-12T19:54:16.040Z,12.10
2023-02-12T19:56:45.856Z,11.95
2023-02-12T19:59:17.531Z,12.01
2023-02-12T20:01:46.621Z,12.11
2023-02-12T20:04:17.033Z,12.14
2023-02-12T20:06:47.223Z,12.10
2023-02-12T20:09:15.310Z,12.06
2023-02-12T20:11:44.628Z,12.01
2023-02-12T20:14:13.805Z,12.00
2023-02-12T20:16:43.716Z,11.99
2023-02-12T20:19:15.780Z,11.96
2023-02-12T20:21:44.855Z,12.03
2023-02-12T20:24:12.746Z,12.02
2023-02-12T20:26:40.763Z,12.07
2023-02-12T20:29:10.007Z,12.04
2023-02-12T20:31:38.288Z,12.04
2023-02-12T20:34:09.162Z,12.03
2023-02-12T20:36:40.694Z,12.01
2023-02-12T20:39:11.336Z,11.94
2023-02-12T20:41:40.672Z,11.79
2023-02-12T20:44:14.322Z,11.77
2023-02-12T20:46:45.060Z,11.87
2023-02-12T20:49:14.761Z,11.92
2023-02-12T20:51:43.823Z,11.96
2023-02-12T20:54:12.971Z,11.81
2023-02-12T20:56:40.845Z,11.73
2023-02-12T20:59:12.116Z,11.66
2023-02-12T21:01:41.860Z,11.62
2023-02-12T21:04:16.765Z,11.49
2023-02-12T21:06:45.732Z,11.55
2023-02-12T21:09:14.477Z,11.61
2023-02-12T21:11:45.813Z,11.52
2023-02-12T21:14:24.568Z,11.63
2023-02-12T21:16:56.566Z,11.72
2023-02-12T21:19:25.974Z,11.69
2023-02-12T21:21:54.284Z,11.70
2023-02-12T21:24:24.306Z,11.78
2023-02-12T21:26:54.287Z,11.79
2023-02-12T21:29:25.992Z,11.74
2023-02-12T21:31:55.051Z,11.68
2023-02-12T21:34:23.875Z,11.69
2023-02-12T21:36:55.268Z,11.65
2023-02-12T21:39:28.145Z,11.67
2023-02-12T21:42:02.973Z,11.62
2023-02-12T21:44:35.551Z,11.57
2023-02-12T21:47:04.334Z,11.49
2023-02-12T21:49:32.324Z,11.50
2023-02-12T21:52:03.154Z,11.48
2023-02-12T21:54:31.329Z,11.46
2023-02-12T21:57:00.153Z,11.48
2023-02-12T21:59:30.133Z,11.47
2023-02-12T22:02:01.723Z,11.37
2023-02-12T22:04:29.844Z,11.27
2023-02-12T22:06:59.590Z,11.23
2023-02-12T22:09:27.430Z,11.30
2023-02-12T22:11:55.436Z,11.37
2023-02-12T22:14:23.307Z,11.32
2023-02-12T22:16:51.820Z,11.36
2023-02-12T22:19:21.090Z,11.36
2023-02-12T22:21:54.077Z,11.27
2023-02-12T22:24:22.108Z,11.18
2023-02-12T22:26:50.077Z,11.23
2023-02-12T22:29:18.139Z,11.22
2023-02-12T22:31:46.859Z,11.33
2023-02-12T22:34:18.597Z,11.34
2023-02-12T22:36:49.651Z,11.40
2023-02-12T22:39:17.814Z,11.44
2023-02-12T22:41:46.137Z,11.36
2023-02-12T22:44:15.816Z,11.23
2023-02-12T22:46:44.705Z,11.29
2023-02-12T22:49:12.932Z,11.24
2023-02-12T22:51:41.988Z,11.24
2023-02-12T22:54:15.048Z,11.29
2023-02-12T22:56:43.954Z,11.20
2023-02-12T22:59:12.985Z,11.22
2023-02-12T23:01:42.169Z,11.31
2023-02-12T23:04:14.657Z,11.27
2023-02-12T23:06:43.406Z,11.32
2023-02-12T23:09:18.899Z,11.28
2023-02-12T23:11:48.287Z,11.26
2023-02-12T23:14:16.428Z,11.39
2023-02-12T23:16:45.217Z,11.49
2023-02-12T23:19:14.120Z,11.57
2023-02-12T23:21:43.364Z,11.59
2023-02-12T23:24:15.108Z,11.55
2023-02-12T23:26:43.760Z,11.55
2023-02-12T23:29:11.657Z,11.66
2023-02-12T23:31:39.929Z,11.64
2023-02-12T23:34:08.232Z,11.62
2023-02-12T23:36:36.202Z,11.66
2023-02-12T23:39:05.743Z,11.62
2023-02-12T23:41:35.204Z,11.44
2023-02-12T23:44:03.681Z,11.29
2023-02-12T23:46:31.720Z,11.12
2023-02-12T23:48:59.618Z,11.00
2023-02-12T23:51:27.998Z,11.04
2023-02-12T23:53:56.103Z,11.05
2023-02-12T23:56:24.218Z,11.12
2023-02-12T23:58:56.622Z,11.03
